createdAt,value
2023-02-11T00:01:20.968Z,39.70
2023-02-11T00:03:49.244Z,46.70
2023-02-11T00:06:17.591Z,39.97
2023-02-11T00:08:45.795Z,45.90
2023-02-11T00:11:15.683Z,39.20
2023-02-11T00:13:44.161Z,41.23
2023-02-11T00:16:13.743Z,45.03
2023-02-11T00:18:43.489Z,39.17
2023-02-11T00:21:12.264Z,43.03
2023-02-11T00:23:40.484Z,38.50
2023-02-11T00:26:13.270Z,46.77
2023-02-11T00:28:41.617Z,39.20
2023-02-11T00:31:09.949Z,40.37
2023-02-11T00:33:38.195Z,46.60
2023-02-11T00:36:10.539Z,46.97
2023-02-11T00:38:38.760Z,46.73
2023-02-11T00:41:06.967Z,41.87
2023-02-11T00:43:35.462Z,57.53
2023-02-11T00:46:03.700Z,41.57
2023-02-11T00:48:31.932Z,47.40
2023-02-11T00:51:00.146Z,54.93
2023-02-11T00:53:29.881Z,43.20
2023-02-11T00:55:58.069Z,51.93
2023-02-11T00:58:26.343Z,44.57
2023-02-11T01:00:55.135Z,50.13
2023-02-11T01:03:23.518Z,52.50
2023-02-11T01:05:52.018Z,42.30
2023-02-11T01:08:20.394Z,49.00
2023-02-11T01:10:56.324Z,51.33
2023-02-11T01:13:24.875Z,41.00
2023-02-11T01:15:53.384Z,54.97
2023-02-11T01:18:21.809Z,40.00
2023-02-11T01:20:49.992Z,42.00
2023-02-11T01:23:18.255Z,55.73
2023-02-11T01:25:46.552Z,45.63
2023-02-11T01:28:19.469Z,45.23
2023-02-11T01:30:47.874Z,47.00
2023-02-11T01:33:16.480Z,52.17
2023-02-11T01:35:45.273Z,46.53
2023-02-11T01:38:17.116Z,54.87
2023-02-11T01:40:49.082Z,46.23
2023-02-11T01:43:18.628Z,45.20
2023-02-11T01:45:59.533Z,50.27
2023-02-11T01:48:29.925Z,44.00
2023-02-11T01:51:01.015Z,50.57
2023-02-11T01:53:46.993Z,40.43
2023-02-11T01:56:33.517Z,50.30
2023-02-11T01:59:05.250Z,52.53
2023-02-11T02:01:35.410Z,53.13
2023-02-11T02:04:04.922Z,47.70
2023-02-11T02:06:35.111Z,52.30
2023-02-11T02:09:05.331Z,51.20
2023-02-11T02:11:33.581Z,49.07
2023-02-11T02:14:03.280Z,54.20
2023-02-11T02:16:33.496Z,54.30
2023-02-11T02:19:12.047Z,56.80
2023-02-11T02:21:57.834Z,49.43
2023-02-11T02:24:44.483Z,50.93
2023-02-11T02:27:27.946Z,51.07
2023-02-11T02:30:04.818Z,52.10
2023-02-11T02:32:37.958Z,45.33
2023-02-11T02:35:11.612Z,41.33
2023-02-11T02:37:43.604Z,54.93
2023-02-11T02:40:13.541Z,55.73
2023-02-11T02:42:42.888Z,53.10
2023-02-11T02:45:12.845Z,55.57
2023-02-11T02:47:42.420Z,49.07
2023-02-11T02:50:11.297Z,48.97
2023-02-11T02:52:44.462Z,50.67
2023-02-11T02:55:31.879Z,45.47
2023-02-11T02:58:12.315Z,49.60
2023-02-11T03:00:44.181Z,41.43
2023-02-11T03:03:19.804Z,48.17
2023-02-11T03:05:51.759Z,46.97
2023-02-11T03:08:24.877Z,50.30
2023-02-11T03:10:55.275Z,47.50
2023-02-11T03:13:25.929Z,52.10
2023-02-11T03:15:55.851Z,53.17
2023-02-11T03:18:27.251Z,54.40
2023-02-11T03:20:56.151Z,60.07
2023-02-11T03:23:28.823Z,57.60
2023-02-11T03:25:59.569Z,57.57
2023-02-11T03:28:31.284Z,47.77
2023-02-11T03:31:04.474Z,64.13
2023-02-11T03:33:38.176Z,54.00
2023-02-11T03:36:08.882Z,49.83
2023-02-11T03:38:39.614Z,57.23
2023-02-11T03:41:08.801Z,55.87
2023-02-11T03:43:38.590Z,44.80
2023-02-11T03:46:07.190Z,53.27
2023-02-11T03:48:38.114Z,53.33
2023-02-11T03:51:08.450Z,55.67
2023-02-11T03:53:37.057Z,53.33
2023-02-11T03:56:08.071Z,54.70
2023-02-11T03:58:36.292Z,52.53
2023-02-11T04:01:08.816Z,50.03
2023-02-11T04:03:38.527Z,52.03
2023-02-11T04:06:07.101Z,49.53
2023-02-11T04:08:35.311Z,57.70
2023-02-11T04:11:03.617Z,54.07
2023-02-11T04:13:31.840Z,53.20
2023-02-11T04:16:00.361Z,51.67
2023-02-11T04:18:28.624Z,55.40
2023-02-11T04:20:58.187Z,57.90
2023-02-11T04:23:26.458Z,57.77
2023-02-11T04:25:54.644Z,48.63
2023-02-11T04:28:23.043Z,48.00
2023-02-11T04:30:51.650Z,54.83
2023-02-11T04:33:19.901Z,48.87
2023-02-11T04:35:48.138Z,58.10
2023-02-11T04:38:17.796Z,50.20
2023-02-11T04:40:46.062Z,50.70
2023-02-11T04:43:14.316Z,54.23
2023-02-11T04:45:42.646Z,51.30
2023-02-11T04:48:10.876Z,50.73
2023-02-11T04:50:39.190Z,45.97
2023-02-11T04:53:07.361Z,39.70
2023-02-11T04:55:36.949Z,51.60
2023-02-11T04:58:05.126Z,61.17
2023-02-11T05:00:33.382Z,48.50
2023-02-11T05:03:01.607Z,53.47
2023-02-11T05:05:30.089Z,46.77
2023-02-11T05:07:58.685Z,48.40
2023-02-11T05:10:27.160Z,49.30
2023-02-11T05:12:56.664Z,48.47
2023-02-11T05:15:24.892Z,52.17
2023-02-11T05:17:53.109Z,50.40
2023-02-11T05:20:22.614Z,58.83
2023-02-11T05:22:51.181Z,53.73
2023-02-11T05:25:20.347Z,47.13
2023-02-11T05:27:48.558Z,50.93
2023-02-11T05:30:18.244Z,49.20
2023-02-11T05:32:46.497Z,52.50
2023-02-11T05:35:14.827Z,48.33
2023-02-11T05:37:43.718Z,46.03
2023-02-11T05:40:13.496Z,43.07
2023-02-11T05:42:42.084Z,47.50
2023-02-11T05:45:10.686Z,48.17
2023-02-11T05:47:40.205Z,46.00
2023-02-11T05:50:08.681Z,47.57
2023-02-11T05:52:36.912Z,51.00
2023-02-11T05:55:05.430Z,43.23
2023-02-11T05:57:33.698Z,44.07
2023-02-11T06:00:01.945Z,33.03
2023-02-11T06:02:30.270Z,42.80
2023-02-11T06:04:59.890Z,42.50
2023-02-11T06:07:28.097Z,39.67
2023-02-11T06:09:56.332Z,38.93
2023-02-11T06:12:24.660Z,45.83
2023-02-11T06:14:52.901Z,38.67
2023-02-11T06:17:21.471Z,44.97
2023-02-11T06:19:49.650Z,36.77
2023-02-11T06:22:19.328Z,40.70
2023-02-11T06:25:00.708Z,39.33
2023-02-11T06:27:29.973Z,39.00
2023-02-11T06:29:58.301Z,42.87
2023-02-11T06:35:15.275Z,43.90
2023-02-11T06:37:45.132Z,42.23
2023-02-11T06:40:13.837Z,46.83
2023-02-11T06:42:42.433Z,50.00
2023-02-11T06:45:11.730Z,41.00
2023-02-11T06:47:40.509Z,42.20
2023-02-11T06:50:10.172Z,42.20
2023-02-11T06:52:38.525Z,37.87
2023-02-11T06:55:08.309Z,42.80
2023-02-11T06:57:36.594Z,39.90
2023-02-11T07:00:05.837Z,43.47
2023-02-11T07:02:34.396Z,49.63
2023-02-11T07:05:02.692Z,39.93
2023-02-11T07:07:34.137Z,38.90
2023-02-11T07:10:04.069Z,44.20
2023-02-11T07:12:34.382Z,46.53
2023-02-11T07:15:02.880Z,46.37
2023-02-11T07:17:31.194Z,42.00
2023-02-11T07:19:59.448Z,45.63
2023-02-11T07:22:27.765Z,40.80
2023-02-11T07:24:56.081Z,43.70
2023-02-11T07:27:24.562Z,39.00
2023-02-11T07:29:54.122Z,48.27
2023-02-11T07:32:22.605Z,41.67
2023-02-11T07:34:50.881Z,41.37
2023-02-11T07:37:19.383Z,46.00
2023-02-11T07:39:47.926Z,38.90
2023-02-11T07:42:16.368Z,41.33
2023-02-11T07:44:45.061Z,44.20
2023-02-11T07:47:14.677Z,44.73
2023-02-11T07:49:43.231Z,45.67
2023-02-11T07:52:11.524Z,49.97
2023-02-11T07:54:39.819Z,48.93
2023-02-11T07:57:08.090Z,45.13
2023-02-11T07:59:36.362Z,45.57
2023-02-11T08:02:16.161Z,36.93
2023-02-11T08:04:45.089Z,42.57
2023-02-11T08:07:14.442Z,47.90
2023-02-11T08:09:44.263Z,46.33
2023-02-11T08:12:12.500Z,45.67
2023-02-11T08:14:40.713Z,45.63
2023-02-11T08:17:24.341Z,39.13
2023-02-11T08:19:52.580Z,42.40
2023-02-11T08:22:20.831Z,40.07
2023-02-11T08:24:52.083Z,41.00
2023-02-11T08:27:39.121Z,41.70
2023-02-11T08:30:07.988Z,39.40
2023-02-11T08:32:39.380Z,48.63
2023-02-11T08:35:09.280Z,41.33
2023-02-11T08:37:37.481Z,45.20
2023-02-11T08:40:06.069Z,40.87
2023-02-11T08:42:34.623Z,40.80
2023-02-11T08:45:03.700Z,42.43
2023-02-11T08:47:32.442Z,48.77
2023-02-11T08:50:03.083Z,44.07
2023-02-11T08:52:31.389Z,43.73
2023-02-11T08:54:59.832Z,47.10
2023-02-11T08:57:28.177Z,51.87
2023-02-11T08:59:56.450Z,57.50
2023-02-11T09:02:24.858Z,50.57
2023-02-11T09:04:53.356Z,43.47
2023-02-11T09:07:23.089Z,46.07
2023-02-11T09:09:51.368Z,52.07
2023-02-11T09:12:19.634Z,47.50
2023-02-11T09:14:48.257Z,53.87
2023-02-11T09:17:16.646Z,42.47
2023-02-11T09:19:45.011Z,53.90
2023-02-11T09:22:13.280Z,48.50
2023-02-11T09:24:42.889Z,49.17
2023-02-11T09:27:11.335Z,51.17
2023-02-11T09:29:39.696Z,47.67
2023-02-11T09:32:09.840Z,44.33
2023-02-11T09:34:38.418Z,47.00
2023-02-11T09:37:06.704Z,47.37
2023-02-11T09:39:34.935Z,51.10
2023-02-11T09:42:22.565Z,42.97
2023-02-11T09:44:50.851Z,43.63
2023-02-11T09:47:24.501Z,45.87
2023-02-11T09:49:54.697Z,53.23
2023-02-11T09:52:26.494Z,49.97
2023-02-11T09:54:56.682Z,53.40
2023-02-11T09:57:29.353Z,53.30
2023-02-11T09:59:58.369Z,52.37
2023-02-11T10:02:30.865Z,56.67
2023-02-11T10:05:11.089Z,53.20
2023-02-11T10:07:42.225Z,61.80
2023-02-11T10:10:15.477Z,56.63
2023-02-11T10:12:52.166Z,62.73
2023-02-11T10:15:23.581Z,48.67
2023-02-11T10:18:01.462Z,50.43
2023-02-11T10:20:33.994Z,45.73
2023-02-11T10:23:04.017Z,52.07
2023-02-11T10:25:36.354Z,58.10
2023-02-11T10:28:13.223Z,59.30
2023-02-11T10:30:44.641Z,46.10
2023-02-11T10:33:17.676Z,56.23
2023-02-11T10:35:46.191Z,57.60
2023-02-11T10:38:14.622Z,54.43
2023-02-11T10:40:42.925Z,56.10
2023-02-11T10:43:15.518Z,57.07
2023-02-11T10:45:45.154Z,64.93
2023-02-11T10:48:32.021Z,48.37
2023-02-11T10:51:08.906Z,54.03
2023-02-11T10:53:37.228Z,61.57
2023-02-11T10:56:05.929Z,57.63
2023-02-11T10:58:39.061Z,73.13
2023-02-11T11:01:23.501Z,56.17
2023-02-11T11:03:53.648Z,66.20
2023-02-11T11:06:30.791Z,61.43
2023-02-11T11:08:59.109Z,65.73
2023-02-11T11:11:28.158Z,70.73
2023-02-11T11:13:59.400Z,62.63
2023-02-11T11:16:28.906Z,69.70
2023-02-11T11:19:13.566Z,68.60
2023-02-11T11:21:43.380Z,65.87
2023-02-11T11:24:17.522Z,64.90
2023-02-11T11:26:47.259Z,71.53
2023-02-11T11:29:18.513Z,59.57
2023-02-11T11:31:51.290Z,82.73
2023-02-11T11:34:25.408Z,63.73
2023-02-11T11:36:53.913Z,68.87
2023-02-11T11:39:24.294Z,77.83
2023-02-11T11:41:53.991Z,87.20
2023-02-11T11:44:27.944Z,85.00
2023-02-11T11:47:09.339Z,70.17
2023-02-11T11:49:39.341Z,66.10
2023-02-11T11:52:13.533Z,75.63
2023-02-11T11:54:42.236Z,57.30
2023-02-11T11:57:14.280Z,75.73
2023-02-11T11:59:44.319Z,81.17
2023-02-11T12:02:26.278Z,75.07
2023-02-11T12:05:00.168Z,81.93
2023-02-11T12:07:36.536Z,81.13
2023-02-11T12:10:23.451Z,87.40
2023-02-11T12:12:54.637Z,73.23
2023-02-11T12:15:30.259Z,89.83
2023-02-11T12:18:03.594Z,79.17
2023-02-11T12:20:34.676Z,61.63
2023-02-11T12:23:14.131Z,72.97
2023-02-11T12:25:45.548Z,88.70
2023-02-11T12:28:22.089Z,90.63
2023-02-11T12:30:56.711Z,81.17
2023-02-11T12:33:32.414Z,77.87
2023-02-11T12:36:04.129Z,86.70
2023-02-11T12:38:45.417Z,81.87
2023-02-11T12:41:40.127Z,88.53
2023-02-11T12:44:08.121Z,85.23
2023-02-11T12:46:43.110Z,94.00
2023-02-11T12:49:32.323Z,82.00
2023-02-11T12:52:21.352Z,80.63
2023-02-11T12:54:53.420Z,96.87
2023-02-11T12:57:23.325Z,74.67
2023-02-11T12:59:56.519Z,76.57
2023-02-11T13:02:29.852Z,92.20
2023-02-11T13:04:59.065Z,75.97
2023-02-11T13:07:31.300Z,81.23
2023-02-11T13:10:02.128Z,88.17
2023-02-11T13:12:49.065Z,83.57
2023-02-11T13:15:17.446Z,87.37
2023-02-11T13:17:50.447Z,85.83
2023-02-11T13:20:23.606Z,79.33
2023-02-11T13:22:57.443Z,80.50
2023-02-11T13:25:30.735Z,77.97
2023-02-11T13:28:01.465Z,78.07
2023-02-11T13:30:33.368Z,73.90
2023-02-11T13:33:06.635Z,60.93
2023-02-11T13:35:35.698Z,65.77
2023-02-11T13:38:04.984Z,62.87
2023-02-11T13:40:35.006Z,74.60
2023-02-11T13:43:04.314Z,77.33
2023-02-11T13:45:35.252Z,72.43
2023-02-11T13:48:06.934Z,59.50
2023-02-11T13:50:39.199Z,81.30
2023-02-11T13:53:08.698Z,72.50
2023-02-11T13:55:38.221Z,63.20
2023-02-11T13:58:19.632Z,77.63
2023-02-11T14:00:49.850Z,74.77
2023-02-11T14:03:47.887Z,58.77
2023-02-11T14:06:35.703Z,48.47
2023-02-11T14:09:11.403Z,54.90
2023-02-11T14:11:44.964Z,58.73
2023-02-11T14:14:21.875Z,63.43
2023-02-11T14:17:11.258Z,60.47
2023-02-11T14:19:42.745Z,66.87
2023-02-11T14:22:16.537Z,47.37
2023-02-11T14:24:50.966Z,63.80
2023-02-11T14:27:25.943Z,63.93
2023-02-11T14:30:04.134Z,56.50
2023-02-11T14:32:38.536Z,66.10
2023-02-11T14:35:12.061Z,63.03
2023-02-11T14:37:50.046Z,61.30
2023-02-11T14:40:27.541Z,51.90
2023-02-11T14:42:59.044Z,59.37
2023-02-11T14:45:28.885Z,62.30
2023-02-11T14:48:00.146Z,66.73
2023-02-11T14:50:30.900Z,64.20
2023-02-11T14:53:00.832Z,61.03
2023-02-11T14:55:30.896Z,66.77
2023-02-11T14:58:09.772Z,54.47
2023-02-11T15:00:37.996Z,62.73
2023-02-11T15:03:06.338Z,62.43
2023-02-11T15:05:36.502Z,59.57
2023-02-11T15:08:09.040Z,50.23
2023-02-11T15:10:39.750Z,53.53
2023-02-11T15:13:08.023Z,66.77
2023-02-11T15:15:37.813Z,63.97
2023-02-11T15:18:06.772Z,57.80
2023-02-11T15:20:36.980Z,55.07
2023-02-11T15:23:07.404Z,57.87
2023-02-11T15:25:36.091Z,57.53
2023-02-11T15:28:14.506Z,62.73
2023-02-11T15:30:43.147Z,66.43
2023-02-11T15:33:22.709Z,63.37
2023-02-11T15:35:53.229Z,65.53
2023-02-11T15:38:21.480Z,71.13
2023-02-11T15:40:56.785Z,62.30
2023-02-11T15:43:25.451Z,62.90
2023-02-11T15:45:59.191Z,66.63
2023-02-11T15:48:31.216Z,66.03
2023-02-11T15:51:02.919Z,69.87
2023-02-11T15:53:33.213Z,69.07
2023-02-11T15:56:04.934Z,65.40
2023-02-11T15:58:37.750Z,72.53
2023-02-11T16:01:07.555Z,70.87
2023-02-11T16:03:36.110Z,70.97
2023-02-11T16:06:23.174Z,80.93
2023-02-11T16:09:01.786Z,65.50
2023-02-11T16:11:31.589Z,68.47
2023-02-11T16:14:00.787Z,60.53
2023-02-11T16:16:30.577Z,79.33
2023-02-11T16:19:04.813Z,81.57
2023-02-11T16:21:39.311Z,72.47
2023-02-11T16:24:08.793Z,83.63
2023-02-11T16:26:39.251Z,82.80
2023-02-11T16:29:08.992Z,79.00
2023-02-11T16:31:38.879Z,97.40
2023-02-11T16:34:13.895Z,92.60
2023-02-11T16:36:43.806Z,85.30
2023-02-11T16:39:13.308Z,91.77
2023-02-11T16:41:41.521Z,82.97
2023-02-11T16:44:09.742Z,76.40
2023-02-11T16:46:39.169Z,88.97
2023-02-11T16:49:11.344Z,78.17
2023-02-11T16:51:50.774Z,83.60
2023-02-11T16:54:19.461Z,81.10
2023-02-11T16:56:47.727Z,82.83
2023-02-11T16:59:16.054Z,76.90
2023-02-11T17:01:45.239Z,89.70
2023-02-11T17:04:17.823Z,61.67
2023-02-11T17:06:48.126Z,76.87
2023-02-11T17:09:21.353Z,62.80
2023-02-11T17:11:50.138Z,82.70
2023-02-11T17:14:20.038Z,57.87
2023-02-11T17:16:49.271Z,88.13
2023-02-11T17:19:20.643Z,88.07
2023-02-11T17:21:50.862Z,88.93
2023-02-11T17:24:19.562Z,104.00
2023-02-11T17:26:48.368Z,97.33
2023-02-11T17:29:18.127Z,84.63
2023-02-11T17:31:46.874Z,100.13
2023-02-11T17:34:15.329Z,91.33
2023-02-11T17:36:43.706Z,92.97
2023-02-11T17:39:13.286Z,95.07
2023-02-11T17:41:42.560Z,88.07
2023-02-11T17:44:14.258Z,108.43
2023-02-11T17:46:45.959Z,112.17
2023-02-11T17:49:14.423Z,115.77
2023-02-11T17:51:43.000Z,110.67
2023-02-11T17:54:15.583Z,115.37
2023-02-11T17:56:44.213Z,108.33
2023-02-11T17:59:13.160Z,116.90
2023-02-11T18:01:42.351Z,119.40
2023-02-11T18:04:12.648Z,113.20
2023-02-11T18:06:40.975Z,129.53
2023-02-11T18:09:09.370Z,115.93
2023-02-11T18:11:40.276Z,132.67
2023-02-11T18:14:09.112Z,129.83
2023-02-11T18:16:39.320Z,121.93
2023-02-11T18:19:08.510Z,116.47
2023-02-11T18:21:37.708Z,137.60
2023-02-11T18:24:07.261Z,117.40
2023-02-11T18:26:35.687Z,132.80
2023-02-11T18:29:07.017Z,134.53
2023-02-11T18:31:36.467Z,109.00
2023-02-11T18:34:05.827Z,134.90
2023-02-11T18:36:34.797Z,128.40
2023-02-11T18:39:03.403Z,153.73
2023-02-11T18:41:31.652Z,121.90
2023-02-11T18:44:02.953Z,139.63
2023-02-11T18:46:33.646Z,139.60
2023-02-11T18:49:02.119Z,134.63
2023-02-11T18:51:40.144Z,145.70
2023-02-11T18:54:08.392Z,144.93
2023-02-11T18:56:36.780Z,149.13
2023-02-11T18:59:09.264Z,136.23
2023-02-11T19:01:40.845Z,153.57
2023-02-11T19:04:09.344Z,129.77
2023-02-11T19:06:39.253Z,148.23
2023-02-11T19:09:09.896Z,137.07
2023-02-11T19:11:48.965Z,152.47
2023-02-11T19:14:18.073Z,144.03
2023-02-11T19:16:50.144Z,144.10
2023-02-11T19:19:18.931Z,142.37
2023-02-11T19:21:48.848Z,150.63
2023-02-11T19:24:18.998Z,152.90
2023-02-11T19:26:47.586Z,146.87
2023-02-11T19:29:16.014Z,161.17
2023-02-11T19:31:44.863Z,163.03
2023-02-11T19:34:15.152Z,156.10
2023-02-11T19:36:43.537Z,148.83
2023-02-11T19:39:12.164Z,152.53
2023-02-11T19:41:40.777Z,148.10
2023-02-11T19:44:09.563Z,150.60
2023-02-11T19:46:40.809Z,173.07
2023-02-11T19:49:09.889Z,145.37
2023-02-11T19:51:39.798Z,158.00
2023-02-11T19:54:08.725Z,154.40
2023-02-11T19:56:37.982Z,156.67
2023-02-11T19:59:09.067Z,144.07
2023-02-11T20:01:37.838Z,159.30
2023-02-11T20:04:16.764Z,147.67
2023-02-11T20:06:49.973Z,146.40
2023-02-11T20:09:18.334Z,149.60
2023-02-11T20:11:47.882Z,171.17
2023-02-11T20:14:16.263Z,163.10
2023-02-11T20:16:49.444Z,163.67
2023-02-11T20:19:18.761Z,153.57
2023-02-11T20:21:49.257Z,145.57
2023-02-11T20:24:18.097Z,156.40
2023-02-11T20:26:48.397Z,147.40
2023-02-11T20:29:17.049Z,158.53
2023-02-11T20:31:48.815Z,128.23
2023-02-11T20:34:19.521Z,129.50
2023-02-11T20:36:52.098Z,125.87
2023-02-11T20:39:22.198Z,130.80
2023-02-11T20:41:51.225Z,141.17
2023-02-11T20:44:21.452Z,130.43
2023-02-11T20:46:50.229Z,196.63
2023-02-11T20:49:20.100Z,142.97
2023-02-11T20:51:49.993Z,158.47
2023-02-11T20:54:19.609Z,146.43
2023-02-11T20:56:48.506Z,137.90
2023-02-11T20:59:17.606Z,134.30
2023-02-11T21:01:47.038Z,131.13
2023-02-11T21:04:16.658Z,141.40
2023-02-11T21:06:45.902Z,139.10
2023-02-11T21:09:17.349Z,131.50
2023-02-11T21:11:45.672Z,151.73
2023-02-11T21:14:14.571Z,140.03
2023-02-11T21:16:43.298Z,137.67
2023-02-11T21:19:12.259Z,134.33
2023-02-11T21:21:40.745Z,139.13
2023-02-11T21:24:09.802Z,138.27
2023-02-11T21:26:40.780Z,140.17
2023-02-11T21:29:10.115Z,133.23
2023-02-11T21:31:39.561Z,131.37
2023-02-11T21:34:08.477Z,122.57
2023-02-11T21:36:36.828Z,139.97
2023-02-11T21:39:05.907Z,118.67
2023-02-11T21:41:35.153Z,136.87
2023-02-11T21:44:04.959Z,113.10
2023-02-11T21:46:33.654Z,125.40
2023-02-11T21:49:01.956Z,142.00
2023-02-11T21:51:30.264Z,116.27
2023-02-11T21:54:01.031Z,139.07
2023-02-11T21:56:29.778Z,122.10
2023-02-11T21:58:59.588Z,142.03
2023-02-11T22:01:30.932Z,134.50
2023-02-11T22:04:00.532Z,125.23
2023-02-11T22:06:31.944Z,119.17
2023-02-11T22:09:00.757Z,121.40
2023-02-11T22:11:29.228Z,122.87
2023-02-11T22:13:57.986Z,130.73
2023-02-11T22:16:29.266Z,125.23
2023-02-11T22:18:58.767Z,120.67
2023-02-11T22:21:27.636Z,144.03
2023-02-11T22:24:09.471Z,110.47
2023-02-11T22:26:37.920Z,128.63
2023-02-11T22:29:06.291Z,126.20
2023-02-11T22:31:36.749Z,132.97
2023-02-11T22:34:05.716Z,138.27
2023-02-11T22:36:35.705Z,129.43
2023-02-11T22:39:05.025Z,131.30
2023-02-11T22:41:33.452Z,125.87
2023-02-11T22:44:01.933Z,135.13
2023-02-11T22:46:30.282Z,138.80
2023-02-11T22:49:00.127Z,127.37
2023-02-11T22:51:30.330Z,117.77
2023-02-11T22:53:59.497Z,113.50
2023-02-11T22:56:28.618Z,137.87
2023-02-11T22:58:58.610Z,110.97
2023-02-11T23:01:27.365Z,119.53
2023-02-11T23:03:55.758Z,122.40
2023-02-11T23:06:25.636Z,118.17
2023-02-11T23:08:53.922Z,106.63
2023-02-11T23:11:23.476Z,105.10
2023-02-11T23:13:52.686Z,114.30
2023-02-11T23:16:22.329Z,99.57
2023-02-11T23:18:50.961Z,120.17
2023-02-11T23:21:21.168Z,105.07
2023-02-11T23:23:51.119Z,105.63
2023-02-11T23:26:19.715Z,105.63
2023-02-11T23:28:49.046Z,110.03
2023-02-11T23:31:19.117Z,110.60
2023-02-11T23:33:48.379Z,96.80
2023-02-11T23:36:16.980Z,104.10
2023-02-11T23:38:49.555Z,109.63
2023-02-11T23:41:19.593Z,123.93
2023-02-11T23:43:50.641Z,103.23
2023-02-11T23:46:19.071Z,92.27
2023-02-11T23:48:47.462Z,107.93
2023-02-11T23:51:16.004Z,91.43
2023-02-11T23:53:45.731Z,96.47
2023-02-11T23:56:17.306Z,108.40
2023-02-11T23:58:48.990Z,112.50
